createdAt,value
2023-02-03T00:00:17.093Z,17.58
2023-02-03T00:03:05.333Z,18.30
2023-02-03T00:05:34.953Z,14.20
2023-02-03T00:08:04.600Z,12.52
2023-02-03T00:10:35.204Z,13.85
2023-02-03T00:13:03.112Z,14.45
2023-02-03T00:15:31.545Z,15.15
2023-02-03T00:17:59.280Z,14.30
2023-02-03T00:20:28.018Z,17.23
2023-02-03T00:22:56.077Z,12.07
2023-02-03T00:25:24.347Z,12.40
2023-02-03T00:27:52.146Z,15.48
2023-02-03T00:30:20.403Z,14.20
2023-02-03T00:32:48.152Z,10.55
2023-02-03T00:35:16.585Z,12.88
2023-02-03T00:37:44.584Z,12.70
2023-02-03T00:40:13.966Z,10.05
2023-02-03T00:42:41.675Z,8.35
2023-02-03T00:45:10.248Z,9.63
2023-02-03T00:47:38.043Z,10.50
2023-02-03T00:50:07.624Z,14.68
2023-02-03T00:52:36.463Z,11.20
2023-02-03T00:55:05.997Z,16.17
2023-02-03T00:57:33.787Z,12.35
2023-02-03T01:00:02.101Z,9.77
2023-02-03T01:02:29.868Z,8.70
2023-02-03T01:04:58.449Z,9.07
2023-02-03T01:07:27.235Z,9.48
2023-02-03T01:09:55.591Z,10.77
2023-02-03T01:12:23.545Z,9.95
2023-02-03T01:14:51.865Z,7.47
2023-02-03T01:17:19.640Z,10.07
2023-02-03T01:19:48.285Z,10.60
2023-02-03T01:22:17.928Z,8.27
2023-02-03T01:24:45.963Z,9.57
2023-02-03T01:27:14.050Z,12.50
2023-02-03T01:29:42.307Z,10.48
2023-02-03T01:32:10.177Z,8.70
2023-02-03T01:34:38.612Z,8.68
2023-02-03T01:37:07.728Z,11.07
2023-02-03T01:39:36.655Z,9.90
2023-02-03T01:42:04.483Z,9.88
2023-02-03T01:44:39.567Z,6.85
2023-02-03T01:47:18.216Z,6.82
2023-02-03T01:49:52.489Z,7.63
2023-02-03T01:52:20.344Z,9.70
2023-02-03T01:54:51.270Z,7.55
2023-02-03T01:57:35.278Z,7.95
2023-02-03T02:00:05.818Z,8.27
2023-02-03T02:02:43.498Z,6.25
2023-02-03T02:05:30.501Z,8.45
2023-02-03T02:08:00.221Z,8.82
2023-02-03T02:10:30.774Z,7.70
2023-02-03T02:12:59.597Z,8.15
2023-02-03T02:15:50.378Z,5.38
2023-02-03T02:18:48.882Z,9.15
2023-02-03T02:21:41.395Z,7.90
2023-02-03T02:24:46.754Z,7.65
2023-02-03T02:27:40.440Z,9.57
2023-02-03T02:30:28.930Z,6.50
2023-02-03T02:33:10.349Z,6.63
2023-02-03T02:36:15.812Z,5.47
2023-02-03T02:39:16.672Z,5.75
2023-02-03T02:41:53.011Z,5.65
2023-02-03T02:44:29.722Z,8.57
2023-02-03T02:46:59.978Z,6.75
2023-02-03T02:49:54.347Z,8.27
2023-02-03T02:52:23.133Z,5.57
2023-02-03T02:54:55.201Z,6.10
2023-02-03T02:57:27.619Z,5.28
2023-02-03T02:59:56.838Z,6.07
2023-02-03T03:02:34.289Z,8.10
2023-02-03T03:05:06.832Z,6.50
2023-02-03T03:07:49.376Z,12.23
2023-02-03T03:10:22.423Z,5.50
2023-02-03T03:12:54.805Z,8.60
2023-02-03T03:15:29.022Z,7.65
2023-02-03T03:18:06.542Z,6.15
2023-02-03T03:20:36.139Z,7.53
2023-02-03T03:23:06.827Z,5.30
2023-02-03T03:25:47.512Z,7.28
2023-02-03T03:28:26.841Z,9.32
2023-02-03T03:30:55.452Z,6.82
2023-02-03T03:33:24.015Z,7.93
2023-02-03T03:36:24.393Z,6.55
2023-02-03T03:39:06.656Z,10.82
2023-02-03T03:41:52.339Z,6.68
2023-02-03T03:44:22.439Z,7.57
2023-02-03T03:46:56.563Z,7.70
2023-02-03T03:49:25.798Z,6.88
2023-02-03T03:51:58.400Z,10.50
2023-02-03T03:54:26.862Z,9.27
2023-02-03T03:57:06.431Z,9.88
2023-02-03T03:59:37.816Z,8.00
2023-02-03T04:02:05.934Z,12.90
2023-02-03T04:04:37.148Z,10.95
2023-02-03T04:07:05.177Z,11.43
2023-02-03T04:09:36.660Z,12.82
2023-02-03T04:12:07.055Z,8.77
2023-02-03T04:14:40.904Z,11.45
2023-02-03T04:17:09.323Z,10.50
2023-02-03T04:19:37.102Z,11.98
2023-02-03T04:22:06.816Z,10.80
2023-02-03T04:24:34.745Z,13.48
2023-02-03T04:27:05.184Z,9.43
2023-02-03T04:29:33.422Z,11.57
2023-02-03T04:32:01.399Z,9.80
2023-02-03T04:34:29.325Z,12.43
2023-02-03T04:36:57.589Z,14.20
2023-02-03T04:39:25.353Z,15.15
2023-02-03T04:41:53.461Z,15.07
2023-02-03T04:44:20.986Z,15.90
2023-02-03T04:46:49.320Z,16.60
2023-02-03T04:49:17.870Z,14.25
2023-02-03T04:51:46.001Z,15.63
2023-02-03T04:54:13.700Z,15.57
2023-02-03T04:56:42.336Z,12.82
2023-02-03T04:59:10.111Z,19.30
2023-02-03T05:01:38.503Z,17.45
2023-02-03T05:04:06.334Z,16.85
2023-02-03T05:06:34.874Z,19.02
2023-02-03T05:09:02.916Z,20.35
2023-02-03T05:11:31.307Z,16.80
2023-02-03T05:13:59.352Z,12.80
2023-02-03T05:16:28.073Z,17.42
2023-02-03T05:18:55.940Z,14.57
2023-02-03T05:21:24.552Z,15.88
2023-02-03T05:23:52.363Z,13.10
2023-02-03T05:26:20.772Z,11.40
2023-02-03T05:28:50.559Z,15.98
2023-02-03T05:31:19.135Z,17.10
2023-02-03T05:33:47.073Z,20.67
2023-02-03T05:36:15.304Z,18.83
2023-02-03T05:38:43.720Z,15.50
2023-02-03T05:41:31.620Z,14.70
2023-02-03T05:43:59.668Z,19.73
2023-02-03T05:46:27.662Z,16.27
2023-02-03T05:48:55.413Z,16.30
2023-02-03T05:51:23.474Z,16.15
2023-02-03T05:53:51.341Z,14.40
2023-02-03T05:56:19.851Z,15.45
2023-02-03T05:58:47.597Z,16.35
2023-02-03T06:01:16.037Z,16.00
2023-02-03T06:03:46.041Z,15.95
2023-02-03T06:06:14.891Z,17.13
2023-02-03T06:08:43.342Z,18.65
2023-02-03T06:11:12.142Z,18.50
2023-02-03T06:13:40.224Z,17.77
2023-02-03T06:16:08.890Z,17.15
2023-02-03T06:18:36.648Z,22.00
2023-02-03T06:21:06.675Z,22.25
2023-02-03T06:23:35.000Z,20.85
2023-02-03T06:26:03.410Z,19.90
2023-02-03T06:28:34.008Z,21.40
2023-02-03T06:31:02.770Z,25.75
2023-02-03T06:33:31.506Z,19.48
2023-02-03T06:36:00.228Z,27.55
2023-02-03T06:38:28.592Z,26.50
2023-02-03T06:40:56.591Z,31.23
2023-02-03T06:43:24.449Z,26.33
2023-02-03T06:45:53.376Z,22.08
2023-02-03T06:48:20.944Z,29.83
2023-02-03T06:50:49.429Z,24.60
2023-02-03T06:53:23.512Z,23.42
2023-02-03T06:55:53.595Z,24.70
2023-02-03T06:58:21.519Z,25.17
2023-02-03T07:00:49.785Z,28.30
2023-02-03T07:03:17.479Z,24.50
2023-02-03T07:05:46.130Z,24.73
2023-02-03T07:08:13.920Z,25.42
2023-02-03T07:10:42.643Z,25.67
2023-02-03T07:13:10.421Z,28.08
2023-02-03T07:15:40.804Z,25.45
2023-02-03T07:18:10.047Z,30.75
2023-02-03T07:20:38.338Z,28.42
2023-02-03T07:23:06.225Z,31.13
2023-02-03T07:25:34.443Z,25.70
2023-02-03T07:28:02.188Z,23.80
2023-02-03T07:30:30.972Z,25.58
2023-02-03T07:32:59.323Z,23.13
2023-02-03T07:35:27.803Z,24.27
2023-02-03T07:37:55.612Z,24.27
2023-02-03T07:40:23.660Z,20.65
2023-02-03T07:42:51.822Z,23.95
2023-02-03T07:45:20.493Z,20.73
2023-02-03T07:47:48.976Z,24.15
2023-02-03T07:50:17.689Z,21.20
2023-02-03T07:52:45.465Z,19.38
2023-02-03T07:55:13.562Z,20.33
2023-02-03T07:57:43.881Z,23.17
2023-02-03T08:00:15.073Z,20.10
2023-02-03T08:02:44.010Z,22.02
2023-02-03T08:05:13.598Z,21.40
2023-02-03T08:07:41.740Z,20.95
2023-02-03T08:10:11.272Z,17.63
2023-02-03T08:12:39.494Z,20.33
2023-02-03T08:15:08.543Z,20.58
2023-02-03T08:17:36.341Z,25.75
2023-02-03T08:20:04.912Z,16.58
2023-02-03T08:22:32.668Z,17.40
2023-02-03T08:25:00.965Z,20.50
2023-02-03T08:27:28.967Z,18.15
2023-02-03T08:29:57.249Z,18.10
2023-02-03T08:32:25.189Z,20.38
2023-02-03T08:34:54.531Z,18.13
2023-02-03T08:37:27.166Z,18.08
2023-02-03T08:42:22.962Z,15.25
2023-02-03T08:44:51.586Z,13.15
2023-02-03T08:47:19.312Z,16.83
2023-02-03T08:49:47.478Z,12.85
2023-02-03T08:52:18.054Z,14.27
2023-02-03T08:54:47.844Z,15.27
2023-02-03T08:57:16.241Z,14.57
2023-02-03T08:59:45.306Z,15.23
2023-02-03T09:02:18.732Z,16.85
2023-02-03T09:04:47.799Z,14.35
2023-02-03T09:07:15.914Z,14.60
2023-02-03T09:09:44.521Z,13.70
2023-02-03T09:12:13.299Z,11.65
2023-02-03T09:14:41.851Z,12.95
2023-02-03T09:17:10.591Z,15.57
2023-02-03T09:19:39.536Z,13.00
2023-02-03T09:22:07.873Z,12.38
2023-02-03T09:24:36.149Z,13.52
2023-02-03T09:27:03.947Z,13.77
2023-02-03T09:29:32.536Z,12.63
2023-02-03T09:32:00.723Z,14.23
2023-02-03T09:34:29.360Z,11.55
2023-02-03T09:36:57.275Z,11.35
2023-02-03T09:39:25.627Z,10.57
2023-02-03T09:42:38.685Z,15.02
2023-02-03T09:45:25.924Z,11.20
2023-02-03T09:47:55.668Z,11.07
2023-02-03T09:50:29.618Z,9.27
2023-02-03T09:52:58.214Z,10.80
2023-02-03T09:55:31.281Z,9.57
2023-02-03T09:58:04.962Z,6.78
2023-02-03T10:00:37.338Z,10.60
2023-02-03T10:03:14.797Z,6.60
2023-02-03T10:05:50.329Z,6.70
2023-02-03T10:08:55.365Z,6.18
2023-02-03T10:11:47.145Z,5.82
2023-02-03T10:14:33.975Z,5.97
2023-02-03T10:17:39.931Z,6.45
2023-02-03T10:20:17.433Z,7.03
2023-02-03T10:22:57.784Z,8.25
2023-02-03T10:25:31.711Z,6.72
2023-02-03T10:28:02.818Z,5.00
2023-02-03T10:30:34.802Z,8.18
2023-02-03T10:33:11.480Z,3.78
2023-02-03T10:35:50.902Z,7.22
2023-02-03T10:38:35.523Z,5.57
2023-02-03T10:41:04.272Z,4.97
2023-02-03T10:43:51.460Z,11.90
2023-02-03T10:46:27.202Z,5.10
2023-02-03T10:48:56.535Z,5.78
2023-02-03T10:51:37.006Z,4.95
2023-02-03T10:54:05.623Z,5.15
2023-02-03T10:56:37.319Z,5.35
2023-02-03T10:59:07.768Z,3.47
2023-02-03T11:01:45.493Z,3.67
2023-02-03T11:04:32.828Z,6.80
2023-02-03T11:07:07.230Z,6.68
2023-02-03T11:09:40.626Z,4.20
2023-02-03T11:14:45.778Z,7.80
2023-02-03T11:17:23.362Z,7.20
2023-02-03T11:19:54.107Z,5.38
2023-02-03T11:22:39.388Z,5.80
2023-02-03T11:25:21.814Z,5.35
2023-02-03T11:27:50.000Z,6.40
2023-02-03T11:30:24.505Z,7.38
2023-02-03T11:32:53.283Z,6.32
2023-02-03T11:35:24.360Z,5.13
2023-02-03T11:37:54.597Z,9.70
2023-02-03T11:40:38.919Z,9.88
2023-02-03T11:43:16.700Z,6.10
2023-02-03T11:45:53.944Z,8.05
2023-02-03T11:48:36.283Z,6.90
2023-02-03T11:51:35.872Z,7.95
2023-02-03T11:54:21.092Z,3.92
2023-02-03T11:57:11.053Z,5.47
2023-02-03T11:59:47.589Z,5.30
2023-02-03T12:02:48.319Z,5.47
2023-02-03T12:05:41.119Z,7.53
2023-02-03T12:08:28.475Z,6.55
2023-02-03T12:11:14.983Z,4.75
2023-02-03T12:14:12.782Z,5.28
2023-02-03T12:16:56.521Z,6.70
2023-02-03T12:19:47.037Z,8.27
2023-02-03T12:22:33.238Z,11.75
2023-02-03T12:25:04.569Z,8.00
2023-02-03T12:27:45.059Z,4.90
2023-02-03T12:30:17.534Z,8.98
2023-02-03T12:32:52.977Z,6.27
2023-02-03T12:36:06.226Z,6.78
2023-02-03T12:38:46.881Z,7.93
2023-02-03T12:41:18.866Z,5.80
2023-02-03T12:43:49.678Z,7.22
2023-02-03T12:46:20.917Z,7.07
2023-02-03T12:49:00.555Z,6.82
2023-02-03T12:51:49.875Z,7.70
2023-02-03T12:54:26.681Z,7.32
2023-02-03T12:56:56.103Z,7.75
2023-02-03T12:59:25.674Z,5.85
2023-02-03T13:02:18.248Z,6.68
2023-02-03T13:04:55.984Z,5.63
2023-02-03T13:07:30.994Z,7.22
2023-02-03T13:10:26.738Z,9.55
2023-02-03T13:12:59.087Z,4.82
2023-02-03T13:15:29.924Z,10.05
2023-02-03T13:18:11.291Z,7.15
2023-02-03T13:20:39.110Z,10.80
2023-02-03T13:23:12.625Z,9.45
2023-02-03T13:25:51.829Z,7.30
2023-02-03T13:28:38.450Z,7.13
2023-02-03T13:31:16.163Z,10.02
2023-02-03T13:34:15.900Z,8.90
2023-02-03T13:37:23.539Z,6.35
2023-02-03T13:40:29.583Z,9.88
2023-02-03T13:43:06.536Z,14.82
2023-02-03T13:45:43.636Z,13.80
2023-02-03T13:48:25.513Z,15.80
2023-02-03T13:51:21.098Z,11.60
2023-02-03T13:53:50.480Z,14.43
2023-02-03T13:56:22.105Z,18.67
2023-02-03T13:59:14.549Z,19.20
2023-02-03T14:01:44.002Z,15.38
2023-02-03T14:04:32.202Z,14.63
2023-02-03T14:07:04.885Z,13.40
2023-02-03T14:09:34.539Z,15.73
2023-02-03T14:12:22.754Z,13.63
2023-02-03T14:14:53.632Z,14.77
2023-02-03T14:17:43.369Z,22.10
2023-02-03T14:20:39.250Z,14.60
2023-02-03T14:23:32.258Z,17.42
2023-02-03T14:26:01.096Z,18.17
2023-02-03T14:28:40.413Z,16.35
2023-02-03T14:32:07.538Z,17.50
2023-02-03T14:35:41.499Z,15.00
2023-02-03T14:38:12.310Z,22.92
2023-02-03T14:40:52.822Z,25.42
2023-02-03T14:43:39.848Z,26.08
2023-02-03T14:46:11.229Z,31.52
2023-02-03T14:49:16.299Z,26.45
2023-02-03T14:51:52.282Z,26.80
2023-02-03T14:54:50.563Z,27.55
2023-02-03T14:57:24.906Z,23.75
2023-02-03T15:00:06.443Z,25.35
2023-02-03T15:02:35.359Z,21.30
2023-02-03T15:05:24.529Z,23.60
2023-02-03T15:07:53.093Z,16.08
2023-02-03T15:10:26.967Z,24.13
2023-02-03T15:12:59.339Z,25.83
2023-02-03T15:15:31.728Z,24.63
2023-02-03T15:20:34.530Z,25.88
2023-02-03T15:23:03.898Z,23.35
2023-02-03T15:25:33.582Z,21.40
2023-02-03T15:28:19.856Z,19.70
2023-02-03T15:30:54.140Z,19.35
2023-02-03T15:33:23.110Z,22.48
2023-02-03T15:35:57.712Z,29.27
2023-02-03T15:38:36.587Z,29.33
2023-02-03T15:41:07.953Z,30.25
2023-02-03T15:43:38.566Z,25.90
2023-02-03T15:46:13.509Z,21.83
2023-02-03T15:48:47.337Z,22.92
2023-02-03T15:51:21.582Z,26.63
2023-02-03T15:54:12.617Z,24.70
2023-02-03T15:56:44.473Z,23.60
2023-02-03T15:59:25.980Z,21.80
2023-02-03T16:01:53.919Z,20.23
2023-02-03T16:04:23.032Z,19.60
2023-02-03T16:06:51.903Z,16.38
2023-02-03T16:09:34.725Z,13.23
2023-02-03T16:12:32.622Z,19.60
2023-02-03T16:15:02.556Z,20.27
2023-02-03T16:17:36.958Z,16.45
2023-02-03T16:20:28.848Z,18.58
2023-02-03T16:23:03.834Z,22.65
2023-02-03T16:25:34.409Z,22.45
2023-02-03T16:28:29.868Z,21.02
2023-02-03T16:31:21.169Z,23.85
2023-02-03T16:34:09.533Z,27.30
2023-02-03T16:37:02.058Z,16.27
2023-02-03T16:39:48.479Z,25.85
2023-02-03T16:42:39.872Z,15.75
2023-02-03T16:45:33.575Z,16.42
2023-02-03T16:48:21.704Z,19.70
2023-02-03T16:51:08.054Z,30.77
2023-02-03T16:53:36.717Z,28.23
2023-02-03T16:56:05.335Z,25.77
2023-02-03T16:58:33.634Z,21.00
2023-02-03T17:01:03.522Z,30.10
2023-02-03T17:03:34.983Z,28.88
2023-02-03T17:06:07.959Z,29.27
2023-02-03T17:08:37.277Z,33.33
2023-02-03T17:11:08.027Z,36.17
2023-02-03T17:13:37.107Z,27.73
2023-02-03T17:16:10.306Z,21.25
2023-02-03T17:18:39.962Z,29.40
2023-02-03T17:21:10.486Z,28.75
2023-02-03T17:23:39.464Z,38.78
2023-02-03T17:26:08.129Z,27.10
2023-02-03T17:28:36.810Z,21.33
2023-02-03T17:31:07.294Z,27.20
2023-02-03T17:33:36.847Z,30.45
2023-02-03T17:36:10.715Z,31.20
2023-02-03T17:55:20.522Z,31.80
2023-02-03T17:57:48.324Z,30.98
2023-02-03T18:00:17.638Z,32.55
2023-02-03T18:02:49.692Z,33.97
2023-02-03T18:05:18.905Z,34.30
2023-02-03T18:10:20.318Z,26.90
2023-02-03T18:12:48.250Z,38.90
2023-02-03T18:15:16.773Z,36.55
2023-02-03T18:17:44.667Z,36.13
2023-02-03T18:20:13.990Z,38.45
2023-02-03T18:22:41.848Z,44.13
2023-02-03T18:25:10.432Z,35.10
2023-02-03T18:27:38.352Z,39.90
2023-02-03T18:30:07.305Z,42.05
2023-02-03T18:32:35.582Z,53.05
2023-02-03T18:35:04.432Z,44.42
2023-02-03T18:37:32.376Z,48.70
2023-02-03T18:40:00.912Z,52.95
2023-02-03T18:42:29.059Z,51.15
2023-02-03T18:44:57.243Z,50.08
2023-02-03T18:47:25.109Z,52.80
2023-02-03T18:49:53.621Z,55.85
2023-02-03T18:52:21.388Z,46.13
2023-02-03T18:54:49.537Z,50.72
2023-02-03T18:57:17.685Z,54.47
2023-02-03T18:59:46.344Z,58.47
2023-02-03T19:02:14.079Z,55.20
2023-02-03T19:04:42.136Z,57.83
2023-02-03T19:07:11.943Z,56.30
2023-02-03T19:09:41.004Z,53.38
2023-02-03T19:12:08.897Z,52.65
2023-02-03T19:14:37.493Z,58.05
2023-02-03T19:17:05.731Z,47.78
2023-02-03T19:19:34.394Z,48.88
2023-02-03T19:22:02.480Z,46.05
2023-02-03T19:24:30.833Z,47.80
2023-02-03T19:26:59.378Z,41.10
2023-02-03T19:29:28.299Z,39.88
2023-02-03T19:31:56.439Z,45.63
2023-02-03T19:34:26.925Z,43.15
2023-02-03T19:36:55.836Z,46.15
2023-02-03T19:39:24.249Z,43.13
2023-02-03T19:41:52.345Z,46.55
2023-02-03T19:44:20.688Z,45.58
2023-02-03T19:46:48.513Z,45.75
2023-02-03T19:49:17.143Z,46.15
2023-02-03T19:51:45.117Z,41.92
2023-02-03T19:54:16.504Z,45.60
2023-02-03T19:56:45.076Z,44.10
2023-02-03T19:59:13.465Z,41.45
2023-02-03T20:01:41.185Z,32.15
2023-02-03T20:04:09.614Z,44.25
2023-02-03T20:06:38.124Z,36.00
2023-02-03T20:09:06.911Z,44.20
2023-02-03T20:11:35.218Z,40.95
2023-02-03T20:14:04.096Z,47.88
2023-02-03T20:16:32.056Z,38.17
2023-02-03T20:19:01.571Z,40.90
2023-02-03T20:21:30.128Z,40.05
2023-02-03T20:23:58.802Z,37.83
2023-02-03T20:26:27.596Z,43.92
2023-02-03T20:28:56.226Z,42.10
2023-02-03T20:31:24.283Z,40.35
2023-02-03T20:33:53.639Z,40.08
2023-02-03T20:36:22.419Z,38.33
2023-02-03T20:38:51.427Z,48.22
2023-02-03T20:41:19.852Z,49.85
2023-02-03T20:43:48.970Z,43.10
2023-02-03T20:46:19.761Z,43.85
2023-02-03T20:48:49.116Z,45.67
2023-02-03T20:51:19.103Z,43.58
2023-02-03T20:53:50.250Z,35.10
2023-02-03T20:56:21.852Z,31.88
2023-02-03T20:58:50.413Z,38.63
2023-02-03T21:01:22.619Z,30.48
2023-02-03T21:06:39.675Z,39.05
2023-02-03T21:09:12.102Z,53.15
2023-02-03T21:11:39.945Z,48.42
2023-02-03T21:14:33.361Z,44.88
2023-02-03T21:17:01.815Z,52.95
2023-02-03T21:19:33.339Z,48.78
2023-02-03T21:22:12.810Z,51.53
2023-02-03T21:24:43.615Z,46.13
2023-02-03T21:27:31.818Z,42.60
2023-02-03T21:30:02.988Z,45.25
2023-02-03T21:32:41.022Z,44.75
2023-02-03T21:35:24.351Z,34.65
2023-02-03T21:38:04.491Z,43.15
2023-02-03T21:40:33.860Z,40.55
2023-02-03T21:43:03.430Z,35.40
2023-02-03T21:45:37.851Z,33.30
2023-02-03T21:48:26.003Z,37.58
2023-02-03T21:50:56.766Z,41.55
2023-02-03T21:53:25.412Z,38.30
2023-02-03T21:55:54.323Z,30.60
2023-02-03T21:58:36.241Z,45.70
2023-02-03T22:01:06.604Z,36.35
2023-02-03T22:03:43.900Z,24.65
2023-02-03T22:06:12.647Z,29.85
2023-02-03T22:08:52.417Z,35.22
2023-02-03T22:11:22.119Z,31.70
2023-02-03T22:13:50.607Z,34.42
2023-02-03T22:16:19.430Z,36.17
2023-02-03T22:18:48.391Z,33.03
2023-02-03T22:21:17.830Z,34.95
2023-02-03T22:23:46.014Z,28.15
2023-02-03T22:26:15.650Z,36.28
2023-02-03T22:28:44.727Z,38.92
2023-02-03T22:31:13.474Z,37.72
2023-02-03T22:33:41.914Z,31.83
2023-02-03T22:36:11.244Z,37.60
2023-02-03T22:38:40.397Z,39.15
2023-02-03T22:41:12.017Z,41.70
2023-02-03T22:43:40.635Z,34.53
2023-02-03T22:46:09.209Z,32.67
2023-02-03T22:48:36.999Z,36.08
2023-02-03T22:51:05.525Z,32.05
2023-02-03T22:53:33.388Z,29.60
2023-02-03T22:56:01.519Z,35.13
2023-02-03T22:58:29.274Z,35.90
2023-02-03T23:00:57.549Z,30.20
2023-02-03T23:03:25.392Z,32.33
2023-02-03T23:05:53.861Z,32.25
2023-02-03T23:08:21.648Z,26.85
2023-02-03T23:10:50.404Z,22.67
2023-02-03T23:13:18.354Z,33.10
2023-02-03T23:15:46.940Z,27.48
2023-02-03T23:18:14.825Z,32.10
2023-02-03T23:20:43.165Z,29.25
2023-02-03T23:23:10.926Z,23.48
2023-02-03T23:25:39.558Z,28.80
2023-02-03T23:28:07.481Z,29.23
2023-02-03T23:30:35.785Z,28.63
2023-02-03T23:33:03.913Z,27.60
2023-02-03T23:35:50.784Z,30.85
2023-02-03T23:38:19.920Z,23.95
2023-02-03T23:40:50.576Z,21.92
2023-02-03T23:43:18.322Z,22.98
2023-02-03T23:45:46.834Z,23.60
2023-02-03T23:48:14.653Z,24.38
2023-02-03T23:50:43.073Z,19.77
2023-02-03T23:53:10.760Z,17.75
2023-02-03T23:55:39.001Z,27.27
2023-02-03T23:58:06.729Z,16.10
